Time;durP1;ratioP1;P1;durP2;ratioP2;P2;SDS_P1;SDS_P2;PMS_P1;PMS_P2;Temp;Humidity;BMP_temperature;BMP_pressure;BME280_temperature;BME280_humidity;BME280_pressure;Samples;Min_cycle;Max_cycle;Signal;HPM_P1;HPM_P2
2024/02/06 00:00:38;;;;;;;13.02;7.55;;;10.00;99.90;;;;;;4248700;27;20140;-66
2024/02/06 00:02:40;;;;;;;13.40;6.97;;;10.00;99.90;;;;;;4266558;27;20046;-65
2024/02/06 00:04:42;;;;;;;13.50;7.60;;;10.10;99.90;;;;;;4266374;27;20043;-66
2024/02/06 00:06:44;;;;;;;16.67;7.70;;;10.10;99.90;;;;;;4266631;27;20465;-64
2024/02/06 00:08:47;;;;;;;19.17;7.22;;;10.10;99.90;;;;;;4266388;27;20075;-64
2024/02/06 00:10:50;;;;;;;13.50;7.63;;;10.10;99.90;;;;;;4248085;27;20047;-67
2024/02/06 00:12:52;;;;;;;14.38;7.50;;;10.10;99.90;;;;;;4248045;27;20482;-65
2024/02/06 00:14:54;;;;;;;15.07;7.32;;;10.10;99.90;;;;;;4266331;27;20100;-65
2024/02/06 00:16:57;;;;;;;18.38;7.60;;;10.10;99.90;;;;;;4266299;27;20118;-64
2024/02/06 00:19:01;;;;;;;13.32;7.78;;;10.10;99.90;;;;;;4266508;27;20446;-67
2024/02/06 00:21:04;;;;;;;14.17;7.43;;;9.90;99.90;;;;;;4268761;27;20076;-67
2024/02/06 00:23:06;;;;;;;16.58;7.32;;;10.00;99.90;;;;;;4251409;27;20659;-67
2024/02/06 00:25:08;;;;;;;12.85;7.50;;;10.00;99.90;;;;;;4270075;27;20035;-64
2024/02/06 00:27:10;;;;;;;13.80;8.05;;;10.00;99.90;;;;;;4270519;27;20114;-68
2024/02/06 00:29:12;;;;;;;12.05;8.00;;;10.10;99.90;;;;;;4269130;27;20047;-65
2024/02/06 00:31:15;;;;;;;15.10;7.57;;;10.00;99.90;;;;;;4247966;27;20123;-70
2024/02/06 00:33:18;;;;;;;15.15;8.02;;;9.90;99.90;;;;;;4266244;27;20046;-69
2024/02/06 00:35:20;;;;;;;13.80;7.82;;;10.00;99.90;;;;;;4266969;27;20092;-68
2024/02/06 00:37:22;;;;;;;12.07;7.40;;;10.00;99.90;;;;;;4266539;27;20055;-66
2024/02/06 00:39:25;;;;;;;11.52;6.88;;;10.00;99.90;;;;;;4266491;27;20478;-63
2024/02/06 00:41:27;;;;;;;17.00;8.05;;;10.00;99.90;;;;;;4265970;27;20043;-67
2024/02/06 00:43:29;;;;;;;12.23;7.07;;;9.90;99.90;;;;;;4266010;27;20139;-66
2024/02/06 00:45:31;;;;;;;11.05;6.75;;;10.00;99.90;;;;;;4265769;27;20039;-64
2024/02/06 00:47:33;;;;;;;14.15;8.38;;;10.00;99.90;;;;;;4265259;27;20046;-67
2024/02/06 00:49:37;;;;;;;15.57;8.45;;;10.00;99.90;;;;;;4265526;27;20081;-68
2024/02/06 00:51:39;;;;;;;14.13;8.60;;;10.00;99.90;;;;;;4265433;27;20082;-65
2024/02/06 00:53:41;;;;;;;16.67;8.10;;;10.00;99.90;;;;;;4265449;27;20466;-65
2024/02/06 00:55:44;;;;;;;14.27;8.27;;;9.90;99.90;;;;;;4265638;27;20038;-65
2024/02/06 00:57:46;;;;;;;12.75;7.95;;;9.90;99.90;;;;;;4265480;27;20057;-65
2024/02/06 00:59:48;;;;;;;11.68;7.50;;;9.90;99.90;;;;;;4265646;27;20043;-65
2024/02/06 01:01:50;;;;;;;15.10;8.95;;;10.10;99.90;;;;;;4247115;27;20383;-66
2024/02/06 01:03:52;;;;;;;14.35;7.78;;;10.10;99.90;;;;;;4265710;27;20144;-65
2024/02/06 01:05:56;;;;;;;15.52;8.50;;;10.10;99.90;;;;;;4265557;27;20046;-72
2024/02/06 01:07:59;;;;;;;16.27;8.43;;;10.10;99.90;;;;;;4265554;27;20099;-71
2024/02/06 01:10:01;;;;;;;17.63;8.63;;;10.10;99.90;;;;;;4265381;27;20500;-66
2024/02/06 01:12:04;;;;;;;17.55;9.23;;;10.10;99.90;;;;;;4246898;27;20073;-71
2024/02/06 01:14:06;;;;;;;17.92;9.85;;;10.10;99.90;;;;;;4265921;27;20160;-69
2024/02/06 01:16:08;;;;;;;14.52;8.23;;;10.00;99.90;;;;;;4265816;27;20042;-66
2024/02/06 01:18:11;;;;;;;16.98;8.18;;;9.90;99.90;;;;;;4265263;27;20042;-72
2024/02/06 01:20:14;;;;;;;13.20;8.10;;;10.00;99.90;;;;;;4265463;27;20042;-66
2024/02/06 01:22:17;;;;;;;15.10;9.02;;;10.10;99.90;;;;;;4265400;27;20042;-64
2024/02/06 01:24:19;;;;;;;19.95;8.40;;;10.20;99.90;;;;;;4265366;27;20055;-73
2024/02/06 01:26:22;;;;;;;16.33;8.68;;;10.10;99.90;;;;;;4265755;27;20043;-65
2024/02/06 01:28:24;;;;;;;15.98;8.75;;;10.10;99.90;;;;;;4265334;27;20083;-65
2024/02/06 01:30:26;;;;;;;15.40;9.02;;;10.10;99.90;;;;;;4265523;27;20047;-65
2024/02/06 01:32:28;;;;;;;19.02;8.77;;;10.10;99.90;;;;;;4265482;27;20466;-65
2024/02/06 01:34:30;;;;;;;16.75;9.45;;;10.20;99.90;;;;;;4265266;27;20047;-66
2024/02/06 01:36:34;;;;;;;14.23;8.75;;;10.10;99.90;;;;;;4265110;27;20107;-65
2024/02/06 01:38:37;;;;;;;17.27;8.98;;;10.10;99.90;;;;;;4265408;27;20049;-66
2024/02/06 01:40:41;;;;;;;16.55;8.18;;;10.10;99.90;;;;;;4264955;27;20084;-65
2024/02/06 01:42:44;;;;;;;13.35;7.95;;;10.10;99.90;;;;;;4264731;27;20043;-65
2024/02/06 01:44:46;;;;;;;16.20;9.20;;;10.10;99.90;;;;;;4265396;27;20462;-64
2024/02/06 01:46:52;;;;;;;20.70;9.48;;;10.20;99.90;;;;;;4264899;27;20119;-66
2024/02/06 01:48:55;;;;;;;18.23;9.32;;;10.20;99.90;;;;;;4265423;27;20057;-66
2024/02/06 01:50:57;;;;;;;12.20;8.73;;;10.10;99.90;;;;;;4265263;27;20494;-67
2024/02/06 01:53:00;;;;;;;15.27;9.35;;;10.00;99.90;;;;;;4265046;27;21273;-66
2024/02/06 01:55:04;;;;;;;18.73;10.10;;;10.10;99.90;;;;;;4265381;27;20054;-67
2024/02/06 01:57:07;;;;;;;16.58;9.43;;;10.10;99.90;;;;;;4264941;27;20504;-66
2024/02/06 01:59:09;;;;;;;19.77;9.65;;;10.00;99.90;;;;;;4265219;27;20050;-64
2024/02/06 02:01:13;;;;;;;18.88;9.95;;;10.10;99.90;;;;;;4267941;27;20043;-65
2024/02/06 02:03:16;;;;;;;18.20;9.40;;;10.10;99.90;;;;;;4268612;27;20573;-66
2024/02/06 02:05:19;;;;;;;18.80;10.63;;;10.10;99.90;;;;;;4268574;27;20958;-69
2024/02/06 02:07:21;;;;;;;16.85;9.93;;;10.10;99.90;;;;;;4269097;27;20042;-68
2024/02/06 02:09:24;;;;;;;18.70;9.88;;;10.00;99.90;;;;;;4267191;27;20047;-67
2024/02/06 02:11:27;;;;;;;15.80;9.77;;;10.00;99.90;;;;;;4265446;27;20046;-68
2024/02/06 02:13:29;;;;;;;12.63;9.20;;;10.00;99.90;;;;;;4265483;27;20042;-67
2024/02/06 02:15:32;;;;;;;19.75;11.00;;;10.10;99.90;;;;;;4264662;27;20065;-65
2024/02/06 02:17:34;;;;;;;18.73;10.15;;;10.00;99.90;;;;;;4264883;27;20047;-65
2024/02/06 02:19:36;;;;;;;18.40;10.00;;;10.10;99.90;;;;;;4264868;27;20401;-69
2024/02/06 02:21:40;;;;;;;21.48;10.60;;;10.00;99.90;;;;;;4264729;27;20042;-66
2024/02/06 02:23:45;;;;;;;18.58;10.05;;;10.10;99.90;;;;;;4264633;27;20046;-64
2024/02/06 02:25:47;;;;;;;15.45;10.57;;;10.10;99.90;;;;;;4264559;27;20486;-64
2024/02/06 02:27:50;;;;;;;16.02;9.93;;;10.10;99.90;;;;;;4264845;27;20058;-64
2024/02/06 02:29:54;;;;;;;17.42;10.65;;;10.10;99.90;;;;;;4264715;27;20042;-69
2024/02/06 02:31:57;;;;;;;17.70;11.30;;;10.10;99.90;;;;;;4246568;27;20039;-68
2024/02/06 02:33:59;;;;;;;17.90;10.23;;;10.20;99.90;;;;;;4264734;27;20043;-66
2024/02/06 02:36:04;;;;;;;20.60;11.00;;;10.10;99.90;;;;;;4264636;27;20049;-70
2024/02/06 02:38:07;;;;;;;21.02;11.05;;;10.20;99.90;;;;;;4264540;27;20042;-64
2024/02/06 02:40:10;;;;;;;19.45;10.65;;;10.10;99.90;;;;;;4264880;27;20050;-66
2024/02/06 02:42:12;;;;;;;18.67;9.85;;;10.10;99.90;;;;;;4264560;27;20111;-65
2024/02/06 02:44:14;;;;;;;20.45;9.95;;;10.20;99.90;;;;;;4264075;27;20051;-66
2024/02/06 02:46:16;;;;;;;19.35;10.35;;;10.20;99.90;;;;;;4264528;27;20129;-66
2024/02/06 02:48:18;;;;;;;18.23;11.15;;;10.20;99.90;;;;;;4246149;27;20476;-66
2024/02/06 02:50:21;;;;;;;17.83;9.95;;;10.20;99.90;;;;;;4246178;28;20047;-68
2024/02/06 02:52:23;;;;;;;18.23;11.60;;;10.20;99.90;;;;;;4264265;27;20100;-67
2024/02/06 02:54:28;;;;;;;20.70;11.35;;;10.20;99.90;;;;;;4266925;27;20086;-71
2024/02/06 02:56:31;;;;;;;22.25;12.30;;;10.30;99.90;;;;;;4267903;27;20039;-65
2024/02/06 02:58:34;;;;;;;17.60;11.25;;;10.20;99.90;;;;;;4267145;27;20462;-65
2024/02/06 03:00:37;;;;;;;18.55;11.02;;;10.20;99.90;;;;;;4267661;27;20145;-62
2024/02/06 03:02:39;;;;;;;18.77;11.35;;;10.20;99.90;;;;;;4266859;27;20050;-64
2024/02/06 03:04:41;;;;;;;19.73;10.93;;;10.20;99.90;;;;;;4267351;27;20485;-66
2024/02/06 03:06:44;;;;;;;26.80;11.27;;;10.20;99.90;;;;;;4267741;27;20390;-66
2024/02/06 03:08:46;;;;;;;22.33;11.25;;;10.10;99.90;;;;;;4267691;27;20110;-65
2024/02/06 03:10:50;;;;;;;17.27;9.88;;;10.10;99.90;;;;;;4267240;27;20047;-65
2024/02/06 03:12:52;;;;;;;20.02;11.15;;;10.10;99.90;;;;;;4267166;27;20047;-65
2024/02/06 03:14:54;;;;;;;21.15;11.43;;;10.20;99.90;;;;;;4267341;27;20066;-66
2024/02/06 03:16:56;;;;;;;17.33;10.77;;;10.10;99.90;;;;;;4267247;27;20046;-66
2024/02/06 03:18:59;;;;;;;19.08;11.50;;;10.20;99.90;;;;;;4249175;27;20047;-66
2024/02/06 03:21:01;;;;;;;17.73;10.82;;;10.20;99.90;;;;;;4267193;27;20409;-66
2024/02/06 03:23:04;;;;;;;18.88;10.95;;;10.20;99.90;;;;;;4267333;27;20042;-66
2024/02/06 03:25:07;;;;;;;18.48;10.95;;;10.20;99.90;;;;;;4267077;27;20057;-64
2024/02/06 03:27:10;;;;;;;21.63;11.45;;;10.30;99.90;;;;;;4266718;27;20118;-65
2024/02/06 03:29:12;;;;;;;18.25;11.50;;;10.30;99.90;;;;;;4267234;27;20039;-66
2024/02/06 03:31:14;;;;;;;18.23;11.25;;;10.30;99.90;;;;;;4267067;27;20050;-65
2024/02/06 03:33:17;;;;;;;19.55;12.30;;;10.40;99.90;;;;;;4267219;27;20192;-66
2024/02/06 03:35:19;;;;;;;19.35;11.35;;;10.30;99.90;;;;;;4267547;27;20047;-66
2024/02/06 03:37:21;;;;;;;19.73;11.55;;;10.30;99.90;;;;;;4267051;27;20443;-66
2024/02/06 03:39:23;;;;;;;19.13;12.18;;;10.30;99.90;;;;;;4267427;27;20090;-65
2024/02/06 03:41:25;;;;;;;18.77;12.55;;;10.30;99.90;;;;;;4248787;27;20130;-66
2024/02/06 03:43:29;;;;;;;17.20;11.95;;;10.20;99.90;;;;;;4268356;27;20043;-66
2024/02/06 03:45:31;;;;;;;19.17;11.10;;;10.30;99.90;;;;;;4268483;27;20042;-66
2024/02/06 03:47:34;;;;;;;23.50;10.93;;;10.30;99.90;;;;;;4269412;27;20043;-65
2024/02/06 03:49:36;;;;;;;18.75;10.65;;;10.30;99.90;;;;;;4271378;27;20047;-67
2024/02/06 03:51:38;;;;;;;18.30;11.23;;;10.30;99.90;;;;;;4269334;27;20099;-66
2024/02/06 03:53:40;;;;;;;19.00;11.63;;;10.30;99.90;;;;;;4267687;27;20137;-65
2024/02/06 03:55:43;;;;;;;19.65;11.05;;;10.30;99.90;;;;;;4267820;27;20096;-65
2024/02/06 03:57:45;;;;;;;17.25;11.65;;;10.30;99.90;;;;;;4266367;27;20038;-64
2024/02/06 03:59:48;;;;;;;19.75;11.52;;;10.40;99.90;;;;;;4266993;27;20043;-65
2024/02/06 04:01:50;;;;;;;25.92;11.90;;;10.40;99.90;;;;;;4266746;27;20050;-66
2024/02/06 04:03:53;;;;;;;20.70;12.35;;;10.30;99.90;;;;;;4266999;27;20043;-65
2024/02/06 04:05:55;;;;;;;20.73;11.45;;;10.20;99.90;;;;;;4266424;27;20054;-71
2024/02/06 04:07:57;;;;;;;23.55;10.70;;;10.20;99.90;;;;;;4266849;27;20103;-66
2024/02/06 04:09:59;;;;;;;16.88;11.85;;;10.10;99.90;;;;;;4266319;27;20133;-65
2024/02/06 04:12:02;;;;;;;19.30;12.02;;;10.20;99.90;;;;;;4266032;27;20050;-64
2024/02/06 04:14:04;;;;;;;18.05;11.98;;;10.20;99.90;;;;;;4266470;27;20043;-71
2024/02/06 04:16:08;;;;;;;16.45;11.60;;;10.20;99.90;;;;;;4266690;27;20047;-64
2024/02/06 04:18:10;;;;;;;18.08;11.77;;;10.30;99.90;;;;;;4266462;27;20580;-65
2024/02/06 04:20:15;;;;;;;21.90;12.82;;;10.30;99.90;;;;;;4266190;27;20047;-65
2024/02/06 04:22:18;;;;;;;17.67;11.35;;;10.20;99.90;;;;;;4266244;27;20050;-64
2024/02/06 04:24:20;;;;;;;17.80;10.82;;;10.20;99.90;;;;;;4266122;27;20053;-65
2024/02/06 04:26:25;;;;;;;17.58;11.65;;;10.30;99.90;;;;;;4247543;27;20071;-72
2024/02/06 04:28:27;;;;;;;25.08;13.25;;;10.40;99.90;;;;;;4266347;27;20521;-67
2024/02/06 04:30:30;;;;;;;19.67;11.80;;;10.30;99.90;;;;;;4266268;27;20408;-69
2024/02/06 04:32:33;;;;;;;18.30;11.90;;;10.20;99.90;;;;;;4266133;27;20047;-68
2024/02/06 04:34:35;;;;;;;19.42;12.10;;;10.30;99.90;;;;;;4266099;27;20045;-70
2024/02/06 04:36:37;;;;;;;19.50;11.48;;;10.30;99.90;;;;;;4266168;27;20099;-64
2024/02/06 04:38:42;;;;;;;17.38;11.25;;;10.30;99.90;;;;;;4266334;27;20074;-67
2024/02/06 04:40:47;;;;;;;17.60;12.05;;;10.30;99.90;;;;;;4266158;27;20637;-65
2024/02/06 04:42:49;;;;;;;22.70;12.35;;;10.30;99.90;;;;;;4266570;27;20039;-66
2024/02/06 04:44:51;;;;;;;22.27;12.70;;;10.40;99.90;;;;;;4266778;27;20070;-68
2024/02/06 04:46:53;;;;;;;15.23;10.88;;;10.30;99.90;;;;;;4266201;27;20461;-67
2024/02/06 04:48:57;;;;;;;16.95;10.55;;;10.40;99.90;;;;;;4266256;27;20114;-65
2024/02/06 04:51:00;;;;;;;24.17;11.73;;;10.40;99.90;;;;;;4266248;27;20404;-69
2024/02/06 04:53:04;;;;;;;20.90;12.05;;;10.50;99.90;;;;;;4265817;27;20061;-65
2024/02/06 04:55:07;;;;;;;22.95;11.73;;;10.50;99.90;;;;;;4265547;27;20054;-65
2024/02/06 04:57:09;;;;;;;23.15;11.70;;;10.50;99.90;;;;;;4265921;27;20088;-65
2024/02/06 04:59:12;;;;;;;18.65;11.20;;;10.50;99.90;;;;;;4265852;27;20405;-65
2024/02/06 05:01:14;;;;;;;23.42;11.57;;;10.60;99.90;;;;;;4265762;27;20050;-67
2024/02/06 05:03:16;;;;;;;18.35;10.70;;;10.60;99.90;;;;;;4265771;27;20049;-66
2024/02/06 05:05:20;;;;;;;17.30;10.80;;;10.50;99.90;;;;;;4265676;27;20077;-66
2024/02/06 05:07:22;;;;;;;21.02;11.18;;;10.60;99.90;;;;;;4265663;27;20129;-66
2024/02/06 05:09:24;;;;;;;20.27;11.32;;;10.60;99.90;;;;;;4265678;27;20409;-66
2024/02/06 05:11:26;;;;;;;18.83;11.40;;;10.60;99.90;;;;;;4265726;27;20504;-67
2024/02/06 05:13:28;;;;;;;19.48;11.73;;;10.60;99.90;;;;;;4265718;27;20039;-66
2024/02/06 05:15:30;;;;;;;20.98;11.20;;;10.60;99.90;;;;;;4265600;27;20042;-65
2024/02/06 05:17:32;;;;;;;20.55;11.10;;;10.70;99.90;;;;;;4266010;27;20046;-66
2024/02/06 05:19:40;;;;;;;17.67;10.02;;;10.70;99.90;;;;;;4267641;27;20042;-65
2024/02/06 05:21:44;;;;;;;20.70;10.73;;;10.60;99.90;;;;;;4268412;27;20067;-65
2024/02/06 05:23:46;;;;;;;21.58;9.85;;;10.60;99.90;;;;;;4269135;27;20126;-65
2024/02/06 05:25:48;;;;;;;19.80;11.93;;;10.60;99.90;;;;;;4269479;27;20057;-65
2024/02/06 05:27:50;;;;;;;20.33;11.23;;;10.50;99.90;;;;;;4267574;27;20039;-66
2024/02/06 05:29:52;;;;;;;17.50;11.38;;;10.50;99.90;;;;;;4265746;27;20039;-65
2024/02/06 05:31:54;;;;;;;19.08;11.88;;;10.60;99.90;;;;;;4247530;27;20043;-65
2024/02/06 05:33:58;;;;;;;15.00;10.43;;;10.60;99.90;;;;;;4265597;27;20054;-66
2024/02/06 05:36:00;;;;;;;17.90;11.40;;;10.60;99.90;;;;;;4265138;27;20109;-65
2024/02/06 05:38:04;;;;;;;16.20;10.18;;;10.70;99.90;;;;;;4264997;27;20054;-65
2024/02/06 05:40:12;;;;;;;18.75;11.82;;;10.70;99.90;;;;;;4265322;27;20054;-65
2024/02/06 05:42:15;;;;;;;19.55;11.65;;;10.80;99.90;;;;;;4246852;27;20039;-65
2024/02/06 05:44:18;;;;;;;18.77;11.57;;;10.70;99.90;;;;;;4265097;27;20103;-64
2024/02/06 05:46:20;;;;;;;21.75;11.55;;;10.70;99.90;;;;;;4264689;27;20050;-65
2024/02/06 05:48:22;;;;;;;21.02;11.38;;;10.70;99.90;;;;;;4264973;27;20042;-67
2024/02/06 05:50:24;;;;;;;18.17;11.70;;;10.70;99.90;;;;;;4265181;27;20043;-65
2024/02/06 05:52:27;;;;;;;24.02;11.10;;;10.60;99.90;;;;;;4264761;27;20101;-66
2024/02/06 05:54:30;;;;;;;16.13;10.93;;;10.60;99.90;;;;;;4265124;27;20489;-67
2024/02/06 05:56:33;;;;;;;19.88;10.20;;;10.60;99.90;;;;;;4265357;27;20042;-70
2024/02/06 05:58:38;;;;;;;17.30;10.70;;;10.60;99.90;;;;;;4264959;27;20113;-67
2024/02/06 06:00:40;;;;;;;;;;;10.60;99.90;;;;;;4265464;27;20046;-66
2024/02/06 06:02:42;;;;;;;21.15;11.40;;;10.60;99.90;;;;;;4264628;27;20275;-66
2024/02/06 06:04:46;;;;;;;18.05;11.80;;;10.50;99.90;;;;;;4265046;27;20046;-66
2024/02/06 06:06:48;;;;;;;21.23;10.45;;;10.50;99.90;;;;;;4264584;27;20410;-66
2024/02/06 06:08:50;;;;;;;21.33;11.93;;;10.50;99.90;;;;;;4265020;27;20126;-66
2024/02/06 06:10:56;;;;;;;20.88;10.90;;;10.50;99.90;;;;;;4246825;27;20110;-65
2024/02/06 06:12:58;;;;;;;16.48;10.63;;;10.50;99.90;;;;;;4264920;27;20053;-66
2024/02/06 06:15:00;;;;;;;25.33;11.45;;;10.50;99.90;;;;;;4246618;28;20046;-69
2024/02/06 06:17:02;;;;;;;22.25;10.73;;;10.50;99.90;;;;;;4264967;27;20091;-65
2024/02/06 06:19:05;;;;;;;16.20;11.18;;;10.60;99.90;;;;;;4246595;28;20128;-71
2024/02/06 06:21:07;;;;;;;15.23;9.93;;;10.60;99.90;;;;;;4264532;27;20055;-69
2024/02/06 06:23:09;;;;;;;17.70;10.40;;;10.60;99.90;;;;;;4264665;27;20049;-65
2024/02/06 06:25:11;;;;;;;23.65;11.57;;;10.60;99.90;;;;;;4264527;27;20070;-68
2024/02/06 06:27:15;;;;;;;22.67;11.48;;;10.70;99.90;;;;;;4264629;27;20408;-65
2024/02/06 06:29:17;;;;;;;15.57;10.82;;;10.70;99.90;;;;;;4267313;27;20054;-65
2024/02/06 06:31:19;;;;;;;19.27;10.70;;;10.70;99.90;;;;;;4268042;27;20054;-66
2024/02/06 06:33:22;;;;;;;23.85;12.32;;;10.70;99.90;;;;;;4268056;27;20058;-66
2024/02/06 06:35:24;;;;;;;19.67;10.43;;;10.70;99.90;;;;;;4249514;27;20047;-65
2024/02/06 06:37:26;;;;;;;21.75;10.77;;;10.70;99.90;;;;;;4249881;27;20047;-67
2024/02/06 06:39:29;;;;;;;18.75;11.95;;;10.80;99.90;;;;;;4268252;27;20046;-67
2024/02/06 06:41:31;;;;;;;18.00;10.95;;;10.80;99.90;;;;;;4267903;27;20473;-64
2024/02/06 06:43:34;;;;;;;18.30;11.00;;;10.80;99.90;;;;;;4268010;27;20042;-66
2024/02/06 06:45:36;;;;;;;22.02;11.43;;;10.80;99.90;;;;;;4268221;27;20038;-70
2024/02/06 06:47:39;;;;;;;18.42;10.85;;;10.80;99.90;;;;;;4249332;27;20069;-65
2024/02/06 06:49:42;;;;;;;23.27;11.75;;;10.80;99.90;;;;;;4267769;27;20438;-66
2024/02/06 06:51:44;;;;;;;22.05;10.98;;;10.70;99.90;;;;;;4267556;27;20047;-65
2024/02/06 06:53:46;;;;;;;20.88;10.68;;;10.70;99.90;;;;;;4267574;27;20046;-67
2024/02/06 06:55:48;;;;;;;23.08;11.68;;;10.60;99.90;;;;;;4268029;27;20103;-65
2024/02/06 06:57:50;;;;;;;24.10;11.60;;;10.70;99.90;;;;;;4268739;27;20039;-65
2024/02/06 06:59:54;;;;;;;25.25;10.60;;;10.60;99.90;;;;;;4269325;27;20047;-66
2024/02/06 07:01:57;;;;;;;18.58;10.23;;;10.70;99.90;;;;;;4268516;27;20376;-65
2024/02/06 07:04:00;;;;;;;22.20;11.83;;;10.70;99.90;;;;;;4250039;27;20047;-66
2024/02/06 07:06:02;;;;;;;23.67;10.20;;;10.70;99.90;;;;;;4267753;27;20443;-65
2024/02/06 07:08:05;;;;;;;20.88;10.15;;;10.70;99.90;;;;;;4267753;27;20088;-65
2024/02/06 07:10:07;;;;;;;17.50;9.60;;;10.80;99.90;;;;;;4267650;27;20064;-64
2024/02/06 07:12:09;;;;;;;25.95;10.98;;;10.90;99.90;;;;;;4267385;27;20047;-67
2024/02/06 07:14:11;;;;;;;19.92;11.82;;;10.90;99.90;;;;;;4267727;27;20046;-65
2024/02/06 07:16:15;;;;;;;19.15;9.13;;;10.80;99.90;;;;;;4249221;27;20055;-65
2024/02/06 07:18:17;;;;;;;20.83;11.07;;;10.90;99.90;;;;;;4267435;27;20091;-64
2024/02/06 07:20:19;;;;;;;24.25;10.82;;;10.90;99.90;;;;;;4266978;27;20454;-66
2024/02/06 07:22:22;;;;;;;22.10;10.70;;;10.90;99.90;;;;;;4267451;27;20047;-66
2024/02/06 07:24:25;;;;;;;17.98;10.00;;;10.80;99.90;;;;;;4267126;27;20046;-64
2024/02/06 07:26:27;;;;;;;22.48;9.60;;;10.80;99.90;;;;;;4267076;27;20081;-64
2024/02/06 07:28:32;;;;;;;21.60;10.90;;;10.90;99.90;;;;;;4267044;27;20051;-65
2024/02/06 07:30:34;;;;;;;;;;;10.90;99.90;;;;;;4267611;27;20101;-66
2024/02/06 07:32:43;;;;;;;26.00;11.55;;;10.90;99.90;;;;;;4249153;27;19961;-64
2024/02/06 07:34:45;;;;;;;22.88;9.65;;;10.80;99.90;;;;;;4266665;27;20088;-66
2024/02/06 07:36:47;;;;;;;23.00;9.80;;;10.80;99.90;;;;;;4267163;27;20073;-68
2024/02/06 07:38:49;;;;;;;17.50;10.05;;;10.80;99.90;;;;;;4267163;27;20047;-77
2024/02/06 07:40:51;;;;;;;19.67;9.90;;;10.90;99.90;;;;;;4266423;27;20046;-65
2024/02/06 07:42:55;;;;;;;21.95;9.98;;;10.90;99.90;;;;;;4266897;27;20045;-64
2024/02/06 07:44:57;;;;;;;18.65;9.70;;;10.90;99.90;;;;;;4267248;27;20440;-67
2024/02/06 07:46:59;;;;;;;24.95;10.85;;;10.90;99.90;;;;;;4248453;27;20130;-68
2024/02/06 07:49:04;;;;;;;21.10;10.13;;;10.90;99.90;;;;;;4266798;27;20074;-65
2024/02/06 07:51:06;;;;;;;19.38;9.35;;;11.00;99.90;;;;;;4267035;27;20423;-64
2024/02/06 07:53:08;;;;;;;29.05;9.80;;;10.90;99.90;;;;;;4266425;27;20056;-66
2024/02/06 07:55:10;;;;;;;33.95;11.80;;;10.90;99.90;;;;;;4266712;27;20550;-65
2024/02/06 07:57:13;;;;;;;23.85;10.32;;;10.90;99.90;;;;;;4266924;27;20042;-66
2024/02/06 07:59:16;;;;;;;35.63;10.88;;;11.00;99.90;;;;;;4266846;27;20421;-65
2024/02/06 08:01:18;;;;;;;40.25;11.25;;;11.00;99.90;;;;;;4266527;27;20067;-65
2024/02/06 08:03:20;;;;;;;20.60;9.77;;;11.10;99.90;;;;;;4266376;27;20061;-66
2024/02/06 08:05:24;;;;;;;23.50;9.27;;;11.00;99.90;;;;;;4266418;27;20550;-66
2024/02/06 08:07:28;;;;;;;17.30;7.40;;;11.00;99.90;;;;;;4266650;27;20073;-66
2024/02/06 08:09:30;;;;;;;16.13;9.20;;;11.00;99.90;;;;;;4266495;27;20485;-68
2024/02/06 08:11:32;;;;;;;40.45;11.30;;;10.90;99.90;;;;;;4266285;27;20047;-68
2024/02/06 08:13:34;;;;;;;25.48;10.18;;;11.00;99.90;;;;;;4266290;27;20049;-66
2024/02/06 08:15:36;;;;;;;20.05;9.48;;;11.00;99.90;;;;;;4266622;27;20053;-64
2024/02/06 08:17:42;;;;;;;17.67;8.38;;;11.00;99.90;;;;;;4247830;27;20043;-64
2024/02/06 08:19:44;;;;;;;24.70;9.60;;;11.00;99.90;;;;;;4266430;27;20154;-66
2024/02/06 08:21:48;;;;;;;21.30;10.05;;;11.10;99.90;;;;;;4266388;27;20042;-65
2024/02/06 08:23:50;;;;;;;24.20;9.50;;;11.10;99.90;;;;;;4248002;27;20433;-64
2024/02/06 08:25:52;;;;;;;23.58;8.93;;;11.10;99.90;;;;;;4266244;27;20394;-66
2024/02/06 08:27:54;;;;;;;23.63;9.18;;;11.10;99.90;;;;;;4247966;27;20047;-64
2024/02/06 08:30:03;;;;;;;18.67;9.07;;;11.10;99.90;;;;;;4248548;27;20047;-66
2024/02/06 08:32:07;;;;;;;20.60;8.55;;;11.20;99.90;;;;;;4265931;27;20059;-66
2024/02/06 08:34:10;;;;;;;18.60;8.55;;;11.20;99.90;;;;;;4266348;27;20494;-66
2024/02/06 08:36:13;;;;;;;20.95;8.93;;;11.30;99.90;;;;;;4244511;27;20149;-63
2024/02/06 08:38:17;;;;;;;26.63;9.05;;;11.30;99.90;;;;;;4250491;27;20096;-66
2024/02/06 08:40:19;;;;;;;18.63;7.53;;;11.30;99.90;;;;;;4250568;27;20553;-66
2024/02/06 08:42:22;;;;;;;24.13;8.65;;;11.30;99.90;;;;;;4250959;27;20055;-64
2024/02/06 08:44:25;;;;;;;22.63;6.93;;;11.40;99.90;;;;;;4249786;27;20136;-65
2024/02/06 08:46:27;;;;;;;22.05;7.80;;;11.40;99.90;;;;;;4249133;27;20043;-66
2024/02/06 08:48:31;;;;;;;18.88;8.85;;;11.40;99.90;;;;;;4254524;27;20049;-63
2024/02/06 08:50:42;;;;;;;16.98;8.25;;;11.50;99.90;;;;;;4266071;27;20092;-66
2024/02/06 08:52:45;;;;;;;19.02;7.05;;;11.50;99.90;;;;;;4266119;27;20066;-63
2024/02/06 08:54:49;;;;;;;21.15;7.20;;;11.50;99.90;;;;;;4266090;27;20439;-63
2024/02/06 08:56:51;;;;;;;20.23;8.13;;;11.50;99.90;;;;;;4265671;27;20069;-64
2024/02/06 08:58:54;;;;;;;22.50;7.88;;;11.60;99.90;;;;;;4265999;27;20103;-66
2024/02/06 09:00:56;;;;;;;21.35;7.85;;;11.60;99.90;;;;;;4265303;27;20043;-67
2024/02/06 09:02:58;;;;;;;21.98;8.57;;;11.70;99.80;;;;;;4265770;27;20042;-69
2024/02/06 09:05:00;;;;;;;20.17;8.27;;;11.70;99.80;;;;;;4265988;27;20047;-69
2024/02/06 09:07:05;;;;;;;26.70;7.40;;;11.70;99.40;;;;;;4265587;27;20140;-65
2024/02/06 09:09:09;;;;;;;13.40;7.47;;;11.60;99.70;;;;;;4265564;27;20505;-66
2024/02/06 09:11:13;;;;;;;13.93;6.90;;;11.70;99.80;;;;;;4265721;27;20080;-66
2024/02/06 09:13:15;;;;;;;13.97;5.63;;;11.70;99.90;;;;;;4265461;27;20070;-65
2024/02/06 09:15:17;;;;;;;14.75;6.70;;;11.80;99.80;;;;;;4265377;27;20386;-65
2024/02/06 09:17:21;;;;;;;19.33;7.30;;;11.70;99.60;;;;;;4265355;27;20468;-65
2024/02/06 09:19:23;;;;;;;16.83;5.93;;;11.90;99.70;;;;;;4265203;27;20053;-64
2024/02/06 09:21:27;;;;;;;13.20;7.25;;;12.00;99.50;;;;;;4265532;27;20116;-66
2024/02/06 09:23:30;;;;;;;18.65;7.40;;;11.90;99.40;;;;;;4265441;27;20414;-64
2024/02/06 09:25:32;;;;;;;15.80;7.63;;;12.00;99.50;;;;;;4265449;27;20054;-67
2024/02/06 09:27:35;;;;;;;30.05;7.65;;;12.00;99.50;;;;;;4264991;27;20439;-65
2024/02/06 09:29:39;;;;;;;17.42;7.63;;;12.00;99.30;;;;;;4264805;27;20046;-64
2024/02/06 09:31:41;;;;;;;18.55;6.72;;;12.10;99.00;;;;;;4265289;27;20091;-65
2024/02/06 09:33:44;;;;;;;26.40;7.68;;;12.00;99.00;;;;;;4246737;27;20047;-64
2024/02/06 09:35:46;;;;;;;19.25;6.85;;;12.00;99.20;;;;;;4265170;27;20049;-67
2024/02/06 09:37:48;;;;;;;25.13;7.07;;;12.10;99.30;;;;;;4265290;27;20045;-65
2024/02/06 09:39:50;;;;;;;20.23;6.63;;;12.10;99.10;;;;;;4265311;27;20050;-66
2024/02/06 09:41:58;;;;;;;23.77;7.22;;;12.20;99.10;;;;;;4265289;27;20113;-66
2024/02/06 09:44:02;;;;;;;19.25;6.88;;;12.10;99.00;;;;;;4264901;27;20064;-68
2024/02/06 09:46:05;;;;;;;17.17;7.65;;;12.30;98.90;;;;;;4246665;27;20489;-69
2024/02/06 09:48:07;;;;;;;16.92;6.15;;;12.30;98.70;;;;;;4265166;27;20479;-66
2024/02/06 09:50:10;;;;;;;16.23;6.45;;;12.30;98.50;;;;;;4265263;27;20051;-66
2024/02/06 09:52:15;;;;;;;23.83;6.60;;;12.40;98.50;;;;;;4265412;27;20046;-65
2024/02/06 09:54:20;;;;;;;19.48;7.43;;;12.40;98.60;;;;;;4264407;27;20051;-66
2024/02/06 09:56:22;;;;;;;14.05;7.63;;;12.50;98.50;;;;;;4265195;27;20154;-66
2024/02/06 09:58:25;;;;;;;18.42;6.90;;;12.50;98.30;;;;;;4264807;27;20042;-65
2024/02/06 10:00:30;;;;;;;16.48;7.15;;;12.50;98.30;;;;;;4265405;27;20069;-65
2024/02/06 10:02:33;;;;;;;22.42;6.45;;;12.60;98.30;;;;;;4264627;27;20050;-65
2024/02/06 10:04:36;;;;;;;19.92;7.38;;;12.60;98.20;;;;;;4263922;27;20051;-65
2024/02/06 10:06:39;;;;;;;25.88;7.82;;;12.70;98.30;;;;;;4264889;27;20145;-67
2024/02/06 10:08:43;;;;;;;18.60;6.90;;;12.80;98.10;;;;;;4264777;27;20412;-67
2024/02/06 10:10:47;;;;;;;15.68;6.68;;;12.80;98.10;;;;;;4265181;27;20043;-69
2024/02/06 10:12:49;;;;;;;17.35;6.22;;;12.80;98.00;;;;;;4265344;27;20053;-66
2024/02/06 10:14:51;;;;;;;20.35;6.35;;;12.70;98.10;;;;;;4266671;27;20046;-68
2024/02/06 10:16:55;;;;;;;22.88;6.80;;;12.80;98.00;;;;;;4267539;27;20092;-67
2024/02/06 10:18:57;;;;;;;22.05;7.05;;;12.80;97.80;;;;;;4268712;27;20378;-66
2024/02/06 10:20:59;;;;;;;25.92;6.70;;;12.90;97.80;;;;;;4267941;27;20049;-65
2024/02/06 10:23:10;;;;;;;22.17;7.10;;;12.90;97.60;;;;;;4266817;27;20070;-68
2024/02/06 10:25:13;;;;;;;21.02;7.43;;;13.00;97.60;;;;;;4266780;27;20043;-72
2024/02/06 10:27:17;;;;;;;23.52;6.55;;;13.00;97.60;;;;;;4265833;27;20058;-66